Sampaio, Brazil
Current Conditions -  °F | °C
As of 11:25 PM on Thursday 27 Nov 2014 (Local Time) from SBIZ Reporting Station
Clear Clear  
Wind Chill: 79°   Ceiling: Unl
Heat Index: 82°   Visibility: 6mi
Dew Point: 75°   Wind: 1mph
Humidity: 89%   Direction: 10°N
Pressure: 29.85"   Gusts: NA
Location:  5.35°S, 47.87°W
Report Text: SBIZ 280225Z 01001KT CAVOK 26/24 Q1011
Loading
Personal Weather Stations






























Interactive Weather Map New forecast layout! Learn more

10-Day Weather Forecast

Advertisements
Track Severe Weather on mobile